Time;durP1;ratioP1;P1;durP2;ratioP2;P2;SDS_P1;SDS_P2;PMS_P1;PMS_P2;Temp;Humidity;BMP_temperature;BMP_pressure;BME280_temperature;BME280_humidity;BME280_pressure;Samples;Min_cycle;Max_cycle;Signal;HPM_P1;HPM_P2
2021/04/11 00:00:39;;;;;;;1.83;1.73;;;10.60;99.90;;;;;;460644;249;28639;-74
2021/04/11 00:02:40;;;;;;;4.10;2.00;;;10.70;99.90;;;;;;459848;258;28157;-74
2021/04/11 00:04:41;;;;;;;3.03;2.03;;;10.70;99.90;;;;;;463274;256;28056;-73
2021/04/11 00:06:43;;;;;;;3.70;2.20;;;10.80;99.90;;;;;;484195;238;29147;-74
2021/04/11 00:08:44;;;;;;;3.40;2.20;;;10.80;99.90;;;;;;482671;245;28343;-73
2021/04/11 00:10:45;;;;;;;3.90;2.40;;;10.90;99.90;;;;;;477275;248;28390;-74
2021/04/11 00:12:46;;;;;;;2.27;1.87;;;10.90;99.90;;;;;;477925;244;27958;-74
2021/04/11 00:14:48;;;;;;;1.90;1.80;;;10.90;99.90;;;;;;486480;244;28054;-74
2021/04/11 00:16:49;;;;;;;2.43;1.80;;;10.90;99.90;;;;;;486250;244;28108;-74
2021/04/11 00:18:50;;;;;;;2.70;1.90;;;10.90;99.90;;;;;;486563;244;28265;-74
2021/04/11 00:20:51;;;;;;;3.73;2.40;;;10.90;99.90;;;;;;486581;242;27986;-74
2021/04/11 00:22:53;;;;;;;2.20;1.70;;;10.90;99.90;;;;;;486568;244;28024;-74
2021/04/11 00:24:54;;;;;;;3.47;2.10;;;10.90;99.90;;;;;;486549;244;28171;-74
2021/04/11 00:26:55;;;;;;;2.00;1.90;;;10.90;99.90;;;;;;486651;241;28225;-74
2021/04/11 00:28:56;;;;;;;3.83;2.20;;;10.90;99.90;;;;;;486711;244;28024;-74
2021/04/11 00:30:58;;;;;;;2.80;1.90;;;10.90;99.90;;;;;;486789;244;28419;-74
2021/04/11 00:32:59;;;;;;;3.90;2.40;;;10.90;99.90;;;;;;486858;244;28588;-74
2021/04/11 00:35:00;;;;;;;6.33;1.67;;;10.90;99.90;;;;;;486527;244;28931;-74
2021/04/11 00:37:01;;;;;;;4.30;2.23;;;10.90;99.90;;;;;;486578;244;27964;-74
2021/04/11 00:39:03;;;;;;;2.70;1.90;;;10.90;99.90;;;;;;486710;242;28217;-74
2021/04/11 00:41:04;;;;;;;2.23;2.00;;;10.90;99.90;;;;;;486725;244;28053;-74
2021/04/11 00:43:05;;;;;;;3.33;2.47;;;10.80;99.90;;;;;;486782;244;28229;-74
2021/04/11 00:45:06;;;;;;;3.20;2.67;;;10.80;99.90;;;;;;486773;244;28000;-74
2021/04/11 00:47:08;;;;;;;4.37;2.83;;;10.70;99.90;;;;;;486748;244;28087;-73
2021/04/11 00:49:09;;;;;;;3.97;2.83;;;10.70;99.90;;;;;;486778;244;28013;-74
2021/04/11 00:51:10;;;;;;;3.50;2.60;;;10.60;99.90;;;;;;486834;244;28143;-74
2021/04/11 00:53:11;;;;;;;2.33;2.13;;;10.60;99.90;;;;;;486700;244;28095;-74
2021/04/11 00:55:13;;;;;;;2.87;2.20;;;10.60;99.90;;;;;;486817;244;29292;-74
2021/04/11 00:57:14;;;;;;;2.93;2.20;;;10.60;99.90;;;;;;486762;244;28578;-74
2021/04/11 00:59:15;;;;;;;4.80;2.67;;;10.60;99.90;;;;;;486719;244;28527;-74
2021/04/11 01:01:16;;;;;;;4.17;2.40;;;10.50;99.90;;;;;;486841;244;27952;-74
2021/04/11 01:03:18;;;;;;;2.57;1.90;;;10.50;99.90;;;;;;486801;244;28007;-74
2021/04/11 01:05:19;;;;;;;6.53;2.80;;;10.50;99.90;;;;;;486961;244;27866;-75
2021/04/11 01:07:20;;;;;;;8.40;2.93;;;10.50;99.90;;;;;;486926;244;28035;-74
2021/04/11 01:09:21;;;;;;;5.10;3.00;;;10.50;99.90;;;;;;486844;244;28010;-74
2021/04/11 01:11:23;;;;;;;4.30;2.90;;;10.50;99.90;;;;;;486906;241;28471;-74
2021/04/11 01:13:24;;;;;;;3.43;2.37;;;10.40;99.90;;;;;;486855;244;27996;-74
2021/04/11 01:15:25;;;;;;;3.70;2.43;;;10.40;99.90;;;;;;486769;244;28030;-74
2021/04/11 01:17:26;;;;;;;4.23;2.80;;;10.30;99.90;;;;;;486890;244;28093;-74
2021/04/11 01:19:28;;;;;;;3.63;2.47;;;10.30;99.90;;;;;;486812;244;28572;-74
2021/04/11 01:21:29;;;;;;;5.30;2.60;;;10.30;99.90;;;;;;486722;244;29381;-74
2021/04/11 01:23:30;;;;;;;3.13;2.63;;;10.30;99.90;;;;;;486797;244;28387;-74
2021/04/11 01:25:31;;;;;;;5.07;2.60;;;10.40;99.90;;;;;;486689;244;28718;-74
2021/04/11 01:27:33;;;;;;;2.60;2.13;;;10.40;99.90;;;;;;486767;244;27848;-74
2021/04/11 01:29:34;;;;;;;4.67;2.30;;;10.40;99.90;;;;;;486639;244;28125;-74
2021/04/11 01:31:35;;;;;;;2.00;1.90;;;10.40;99.90;;;;;;486611;244;27897;-74
2021/04/11 01:33:36;;;;;;;6.17;2.40;;;10.40;99.90;;;;;;486850;244;27993;-74
2021/04/11 01:35:38;;;;;;;5.33;2.73;;;10.40;99.90;;;;;;486764;244;27849;-74
2021/04/11 01:37:39;;;;;;;2.60;2.40;;;10.30;99.90;;;;;;486655;244;27897;-74
2021/04/11 01:39:40;;;;;;;4.80;2.73;;;10.30;99.90;;;;;;486640;242;28335;-74
2021/04/11 01:41:41;;;;;;;5.10;2.60;;;10.20;99.90;;;;;;486719;244;28024;-74
2021/04/11 01:43:43;;;;;;;3.50;2.50;;;10.30;99.90;;;;;;486643;244;28052;-74
2021/04/11 01:45:44;;;;;;;3.73;2.80;;;10.30;99.90;;;;;;486743;244;28621;-74
2021/04/11 01:47:45;;;;;;;4.10;2.63;;;10.30;99.90;;;;;;486698;244;29349;-73
2021/04/11 01:49:46;;;;;;;2.50;2.30;;;10.30;99.90;;;;;;486770;244;28467;-74
2021/04/11 01:51:48;;;;;;;3.27;2.10;;;10.30;99.90;;;;;;486747;244;28012;-74
2021/04/11 01:53:49;;;;;;;4.30;2.20;;;10.30;99.90;;;;;;486578;244;28091;-76
2021/04/11 01:55:50;;;;;;;4.13;2.40;;;10.40;99.90;;;;;;486686;244;28132;-74
2021/04/11 01:57:51;;;;;;;2.70;2.43;;;10.40;99.90;;;;;;486750;244;27904;-74
2021/04/11 01:59:53;;;;;;;4.73;2.40;;;10.40;99.90;;;;;;486711;244;28472;-74
2021/04/11 02:01:54;;;;;;;2.30;2.00;;;10.50;99.90;;;;;;486708;242;27921;-74
2021/04/11 02:03:55;;;;;;;3.80;2.40;;;10.50;99.90;;;;;;486755;244;27874;-73
2021/04/11 02:05:56;;;;;;;8.40;2.57;;;10.50;99.90;;;;;;486700;244;28102;-74
2021/04/11 02:07:58;;;;;;;4.33;2.20;;;10.50;99.90;;;;;;486742;244;27988;-74
2021/04/11 02:09:59;;;;;;;4.00;2.00;;;10.50;99.90;;;;;;486698;244;28596;-74
2021/04/11 02:12:00;;;;;;;4.40;2.33;;;10.40;99.90;;;;;;486369;244;28600;-74
2021/04/11 02:14:02;;;;;;;2.07;1.90;;;10.40;99.90;;;;;;486841;244;28701;-74
2021/04/11 02:16:03;;;;;;;5.83;2.20;;;10.40;99.90;;;;;;486813;244;28009;-74
2021/04/11 02:18:04;;;;;;;2.80;2.20;;;10.40;99.90;;;;;;486815;244;28001;-74
2021/04/11 02:20:05;;;;;;;4.47;2.20;;;10.40;99.90;;;;;;486899;244;27925;-74
2021/04/11 02:22:07;;;;;;;2.87;2.20;;;10.30;99.90;;;;;;486771;241;28047;-74
2021/04/11 02:24:08;;;;;;;2.53;2.30;;;10.40;99.90;;;;;;486737;244;28016;-74
2021/04/11 02:26:09;;;;;;;3.53;2.13;;;10.40;99.90;;;;;;486767;244;28102;-74
2021/04/11 02:28:10;;;;;;;3.43;2.30;;;10.40;99.90;;;;;;486734;244;28011;-74
2021/04/11 02:30:12;;;;;;;3.20;2.07;;;10.40;99.90;;;;;;486755;244;27972;-74
2021/04/11 02:32:13;;;;;;;3.77;2.47;;;10.40;99.90;;;;;;486708;244;27985;-74
2021/04/11 02:34:14;;;;;;;6.33;2.60;;;10.40;99.90;;;;;;486743;244;28763;-74
2021/04/11 02:36:15;;;;;;;3.77;2.40;;;10.40;99.90;;;;;;486782;242;28427;-74
2021/04/11 02:38:17;;;;;;;3.60;2.23;;;10.40;99.90;;;;;;486725;244;28622;-74
2021/04/11 02:40:18;;;;;;;2.73;2.13;;;10.30;99.90;;;;;;486788;244;28400;-74
2021/04/11 02:42:19;;;;;;;2.50;2.10;;;10.30;99.90;;;;;;486808;244;28053;-74
2021/04/11 02:44:20;;;;;;;2.40;2.20;;;10.20;99.90;;;;;;486769;244;28263;-74
2021/04/11 02:46:22;;;;;;;3.33;2.20;;;10.10;99.90;;;;;;486803;244;27972;-74
2021/04/11 02:48:23;;;;;;;4.97;2.30;;;10.10;99.90;;;;;;486727;244;27996;-74
2021/04/11 02:50:24;;;;;;;2.47;2.27;;;10.10;99.90;;;;;;486721;241;27903;-75
2021/04/11 02:52:25;;;;;;;6.00;2.63;;;10.10;99.90;;;;;;486713;244;27895;-74
2021/04/11 02:54:27;;;;;;;4.70;2.30;;;10.10;99.90;;;;;;486709;244;27906;-74
2021/04/11 02:56:28;;;;;;;4.23;2.60;;;9.90;99.90;;;;;;486708;241;28102;-74
2021/04/11 02:58:29;;;;;;;2.77;2.40;;;9.90;99.90;;;;;;486779;244;28020;-74
2021/04/11 03:00:30;;;;;;;5.33;2.03;;;9.90;99.90;;;;;;486858;244;28556;-74
2021/04/11 03:02:32;;;;;;;5.30;2.43;;;9.90;99.90;;;;;;486768;244;28459;-74
2021/04/11 03:04:33;;;;;;;4.27;2.60;;;9.90;99.90;;;;;;486712;244;28452;-74
2021/04/11 03:06:34;;;;;;;5.10;2.57;;;9.90;99.90;;;;;;486708;244;28552;-74
2021/04/11 03:08:35;;;;;;;2.83;2.63;;;9.90;99.90;;;;;;486732;244;28303;-74
2021/04/11 03:10:37;;;;;;;2.60;2.40;;;9.90;99.90;;;;;;486727;244;27965;-74
2021/04/11 03:12:38;;;;;;;3.77;2.40;;;9.90;99.90;;;;;;486726;244;28004;-74
2021/04/11 03:14:39;;;;;;;3.40;2.43;;;9.90;99.90;;;;;;486745;244;27768;-73
2021/04/11 03:16:40;;;;;;;2.60;2.33;;;9.90;99.90;;;;;;486736;244;28025;-74
2021/04/11 03:18:42;;;;;;;4.47;2.50;;;9.80;99.90;;;;;;486766;244;28049;-74
2021/04/11 03:20:43;;;;;;;3.10;2.60;;;9.80;99.90;;;;;;486716;244;28007;-74
2021/04/11 03:22:44;;;;;;;2.30;2.00;;;9.80;99.90;;;;;;486696;244;27891;-73
2021/04/11 03:24:45;;;;;;;2.43;2.10;;;9.80;99.90;;;;;;486910;242;28216;-74
2021/04/11 03:26:47;;;;;;;5.33;2.33;;;9.80;99.90;;;;;;486736;244;27689;-74
2021/04/11 03:28:48;;;;;;;2.90;2.60;;;9.80;99.90;;;;;;486677;244;28152;-74
2021/04/11 03:30:49;;;;;;;3.17;2.60;;;9.90;99.90;;;;;;486928;244;28252;-74
2021/04/11 03:32:50;;;;;;;3.10;2.37;;;9.90;99.90;;;;;;486941;244;28070;-74
2021/04/11 03:34:52;;;;;;;3.37;2.30;;;9.90;99.90;;;;;;486871;244;27980;-74
2021/04/11 03:36:53;;;;;;;2.50;2.30;;;9.90;99.90;;;;;;486914;244;28126;-74
2021/04/11 03:38:54;;;;;;;4.27;2.60;;;9.90;99.90;;;;;;486806;244;28494;-74
2021/04/11 03:40:57;;;;;;;4.53;2.63;;;9.90;99.90;;;;;;486893;244;28387;-73
2021/04/11 03:42:57;;;;;;;4.90;2.40;;;9.90;99.90;;;;;;486643;244;28131;-74
2021/04/11 03:44:58;;;;;;;2.97;2.70;;;9.80;99.90;;;;;;486705;244;28553;-74
2021/04/11 03:46:59;;;;;;;6.60;2.30;;;9.90;99.90;;;;;;486771;244;28512;-74
2021/04/11 03:49:00;;;;;;;4.87;3.00;;;9.90;99.90;;;;;;486783;242;27865;-74
2021/04/11 03:51:01;;;;;;;4.30;2.37;;;9.80;99.90;;;;;;486736;244;27958;-77
2021/04/11 03:53:03;;;;;;;2.30;2.20;;;9.90;99.90;;;;;;486779;244;27528;-74
2021/04/11 03:55:04;;;;;;;3.63;2.50;;;9.80;99.90;;;;;;486711;244;28000;-74
2021/04/11 03:57:08;;;;;;;2.53;2.33;;;9.90;99.90;;;;;;486727;244;28076;-74
2021/04/11 03:59:09;;;;;;;4.60;2.67;;;9.90;99.90;;;;;;486754;241;27775;-74
2021/04/11 04:01:11;;;;;;;3.40;2.27;;;9.90;99.90;;;;;;486759;244;28010;-74
2021/04/11 04:03:12;;;;;;;2.43;2.17;;;9.90;99.90;;;;;;486768;244;28075;-74
2021/04/11 04:05:13;;;;;;;3.03;2.23;;;9.90;99.90;;;;;;486746;244;28120;-74
2021/04/11 04:07:14;;;;;;;3.43;2.30;;;9.90;99.90;;;;;;486758;244;28194;-73
2021/04/11 04:09:16;;;;;;;4.80;2.70;;;9.90;99.90;;;;;;486713;242;28050;-73
2021/04/11 04:11:17;;;;;;;3.23;2.40;;;10.00;99.90;;;;;;486764;244;28028;-74
2021/04/11 04:13:18;;;;;;;4.43;2.47;;;10.00;99.90;;;;;;486718;244;28109;-74
2021/04/11 04:15:19;;;;;;;4.43;2.50;;;10.00;99.90;;;;;;486697;244;27976;-73
2021/04/11 04:17:21;;;;;;;6.63;2.67;;;10.00;99.90;;;;;;486746;244;28121;-74
2021/04/11 04:19:22;;;;;;;3.80;2.23;;;10.00;99.90;;;;;;486728;244;29171;-74
2021/04/11 04:21:23;;;;;;;2.67;2.30;;;10.00;99.90;;;;;;486722;244;28353;-74
2021/04/11 04:23:24;;;;;;;3.43;2.70;;;10.00;99.90;;;;;;486706;244;28608;-75
2021/04/11 04:25:26;;;;;;;3.30;2.43;;;10.10;99.90;;;;;;486745;244;27887;-74
2021/04/11 04:27:27;;;;;;;2.83;2.13;;;10.10;99.90;;;;;;486822;244;27859;-75
2021/04/11 04:29:28;;;;;;;4.30;2.80;;;10.10;99.90;;;;;;486807;244;27957;-74
2021/04/11 04:31:29;;;;;;;3.00;2.40;;;10.20;99.90;;;;;;486774;244;27775;-74
2021/04/11 04:33:31;;;;;;;4.10;2.20;;;10.20;99.90;;;;;;486745;244;28004;-74
2021/04/11 04:35:32;;;;;;;2.53;2.20;;;10.10;99.90;;;;;;486749;244;27871;-74
2021/04/11 04:37:33;;;;;;;3.10;2.40;;;10.10;99.90;;;;;;486771;242;28124;-75
2021/04/11 04:39:34;;;;;;;3.47;2.40;;;10.10;99.90;;;;;;486745;244;27970;-74
2021/04/11 04:41:36;;;;;;;2.67;2.27;;;10.10;99.90;;;;;;486858;244;28147;-74
2021/04/11 04:43:37;;;;;;;5.73;2.37;;;10.10;99.90;;;;;;486834;244;29360;-74
2021/04/11 04:45:38;;;;;;;5.40;2.40;;;10.10;99.90;;;;;;486719;244;28369;-74
2021/04/11 04:47:39;;;;;;;6.03;2.00;;;10.20;99.90;;;;;;486755;244;28541;-74
2021/04/11 04:49:41;;;;;;;5.70;2.50;;;10.10;99.90;;;;;;486723;244;28026;-74
2021/04/11 04:51:42;;;;;;;3.73;2.43;;;10.10;99.90;;;;;;486768;244;27852;-74
2021/04/11 04:53:43;;;;;;;2.93;2.03;;;10.20;99.90;;;;;;486744;242;28201;-74
2021/04/11 04:55:44;;;;;;;4.17;2.00;;;10.20;99.90;;;;;;486775;244;27991;-74
2021/04/11 04:57:46;;;;;;;3.77;2.07;;;10.20;99.90;;;;;;486724;242;28020;-74
2021/04/11 04:59:47;;;;;;;2.63;1.93;;;10.20;99.90;;;;;;486777;244;28091;-74
2021/04/11 05:01:48;;;;;;;2.77;2.40;;;10.20;99.90;;;;;;486817;244;28021;-74
2021/04/11 05:03:49;;;;;;;4.40;2.50;;;10.20;99.90;;;;;;486828;244;28227;-74
2021/04/11 05:05:51;;;;;;;5.30;2.40;;;10.20;99.90;;;;;;486875;244;28211;-74
2021/04/11 05:07:52;;;;;;;6.27;2.53;;;10.20;99.90;;;;;;486869;244;28710;-74
2021/04/11 05:09:53;;;;;;;3.27;2.10;;;10.30;99.90;;;;;;486821;244;29467;-74
2021/04/11 05:11:54;;;;;;;3.87;3.00;;;10.30;99.90;;;;;;486879;244;28523;-74
2021/04/11 05:13:56;;;;;;;3.13;2.13;;;10.30;99.90;;;;;;486837;244;28149;-74
2021/04/11 05:15:57;;;;;;;4.33;2.10;;;10.30;99.90;;;;;;486850;244;27852;-74
2021/04/11 05:17:58;;;;;;;3.57;2.23;;;10.30;99.90;;;;;;486803;244;28155;-74
2021/04/11 05:20:00;;;;;;;3.60;2.10;;;10.30;99.90;;;;;;486739;244;27980;-74
2021/04/11 05:22:01;;;;;;;2.90;2.30;;;10.30;99.90;;;;;;486799;244;27831;-74
2021/04/11 05:24:02;;;;;;;5.20;2.47;;;10.30;99.90;;;;;;486800;244;28056;-73
2021/04/11 05:26:03;;;;;;;2.70;2.30;;;10.40;99.90;;;;;;486712;244;28132;-74
2021/04/11 05:28:05;;;;;;;3.83;2.13;;;10.40;99.90;;;;;;486741;244;28380;-74
2021/04/11 05:30:06;;;;;;;3.27;2.07;;;10.50;99.90;;;;;;486415;244;28202;-75
2021/04/11 05:32:07;;;;;;;3.13;2.23;;;10.50;99.90;;;;;;483082;246;28842;-74
2021/04/11 05:34:08;;;;;;;5.33;2.87;;;10.50;99.90;;;;;;483035;246;28319;-74
2021/04/11 05:36:10;;;;;;;4.50;2.70;;;10.50;99.90;;;;;;483092;246;28475;-74
2021/04/11 05:38:11;;;;;;;4.73;2.33;;;10.50;99.90;;;;;;483112;246;28416;-74
2021/04/11 05:40:12;;;;;;;3.17;2.17;;;10.60;99.90;;;;;;483193;246;28145;-74
2021/04/11 05:42:13;;;;;;;6.47;2.50;;;10.60;99.90;;;;;;483149;246;28120;-74
2021/04/11 05:44:15;;;;;;;4.60;2.07;;;10.60;99.90;;;;;;483126;246;28263;-74
2021/04/11 05:46:16;;;;;;;3.90;2.50;;;10.60;99.90;;;;;;482965;246;27996;-74
2021/04/11 05:48:17;;;;;;;4.57;2.50;;;10.60;99.90;;;;;;483129;246;28087;-74
2021/04/11 05:50:18;;;;;;;3.00;2.10;;;10.60;99.90;;;;;;483160;246;28267;-74
2021/04/11 05:52:20;;;;;;;3.63;2.23;;;10.70;99.90;;;;;;483216;246;28016;-74
2021/04/11 05:54:21;;;;;;;3.90;2.40;;;10.70;99.90;;;;;;483265;246;28133;-74
2021/04/11 05:56:22;;;;;;;3.97;2.20;;;10.70;99.90;;;;;;483273;246;28716;-73
2021/04/11 05:58:23;;;;;;;5.43;2.37;;;10.70;99.90;;;;;;483192;246;28539;-74
2021/04/11 06:00:25;;;;;;;3.90;2.60;;;10.70;99.90;;;;;;483241;246;28564;-74
2021/04/11 06:02:26;;;;;;;3.90;2.20;;;10.70;99.90;;;;;;483244;246;28545;-73
2021/04/11 06:04:27;;;;;;;4.27;2.13;;;10.80;99.90;;;;;;483154;246;27974;-74
2021/04/11 06:06:28;;;;;;;3.50;2.20;;;10.90;99.90;;;;;;483213;246;28111;-75
2021/04/11 06:08:30;;;;;;;3.17;2.10;;;11.00;99.90;;;;;;483149;246;28103;-74
2021/04/11 06:10:31;;;;;;;3.50;2.43;;;11.00;99.90;;;;;;483045;246;28105;-74
2021/04/11 06:12:32;;;;;;;4.43;2.20;;;11.00;99.90;;;;;;483094;246;28000;-73
2021/04/11 06:14:33;;;;;;;6.07;2.50;;;11.10;99.90;;;;;;483040;246;28279;-74
2021/04/11 06:16:35;;;;;;;7.07;2.43;;;11.10;99.90;;;;;;482876;246;28478;-75
2021/04/11 06:18:36;;;;;;;3.70;2.23;;;11.10;99.90;;;;;;483094;246;28227;-74
2021/04/11 06:20:37;;;;;;;2.60;2.40;;;11.10;99.90;;;;;;482887;246;28790;-74
2021/04/11 06:22:38;;;;;;;4.00;2.50;;;11.10;99.90;;;;;;483082;246;28912;-74
2021/04/11 06:24:40;;;;;;;6.50;2.30;;;11.10;99.90;;;;;;483131;246;28654;-73
2021/04/11 06:26:41;;;;;;;5.00;2.20;;;11.20;99.90;;;;;;483048;246;29649;-74
2021/04/11 06:28:47;;;;;;;2.47;2.27;;;11.10;99.90;;;;;;483091;246;28338;-74
2021/04/11 06:30:43;;;;;;;4.90;2.20;;;11.10;99.90;;;;;;482708;246;28258;-74
2021/04/11 06:32:45;;;;;;;4.80;1.87;;;11.20;99.90;;;;;;483187;246;28102;-74
2021/04/11 06:34:46;;;;;;;4.40;2.20;;;11.20;99.90;;;;;;483171;246;28442;-74
2021/04/11 06:36:47;;;;;;;1.90;1.80;;;11.20;99.90;;;;;;483172;246;28318;-74
2021/04/11 06:38:48;;;;;;;5.87;2.50;;;11.30;99.90;;;;;;483060;246;28388;-74
2021/04/11 06:40:50;;;;;;;2.40;2.10;;;11.30;99.90;;;;;;483077;246;28455;-74
2021/04/11 06:42:51;;;;;;;5.37;2.27;;;11.30;99.90;;;;;;483038;246;28225;-74
2021/04/11 06:44:52;;;;;;;3.67;2.37;;;11.30;99.90;;;;;;483080;246;28568;-74
2021/04/11 06:46:53;;;;;;;3.03;2.17;;;11.40;99.90;;;;;;482924;246;28652;-74
2021/04/11 06:48:55;;;;;;;3.60;2.20;;;11.30;99.90;;;;;;482939;246;28934;-74
2021/04/11 06:50:56;;;;;;;4.43;2.23;;;11.50;99.90;;;;;;482972;241;29320;-74
2021/04/11 06:52:57;;;;;;;3.10;2.00;;;11.60;99.90;;;;;;485763;244;28325;-74
2021/04/11 06:54:58;;;;;;;6.30;2.20;;;11.90;99.90;;;;;;486000;242;28424;-74
2021/04/11 06:57:00;;;;;;;3.17;2.07;;;12.10;99.90;;;;;;485444;244;28501;-74
2021/04/11 06:59:01;;;;;;;6.67;2.40;;;12.20;99.90;;;;;;482962;244;28706;-75
2021/04/11 07:01:02;;;;;;;4.57;2.40;;;12.10;99.90;;;;;;482399;246;28361;-76
2021/04/11 07:03:03;;;;;;;6.03;2.53;;;12.00;99.90;;;;;;482324;246;28149;-77
2021/04/11 07:05:05;;;;;;;3.03;1.90;;;12.00;99.90;;;;;;482339;246;28908;-77
2021/04/11 07:07:06;;;;;;;3.93;2.30;;;12.00;99.90;;;;;;482424;246;28875;-76
2021/04/11 07:09:08;;;;;;;2.40;2.20;;;;;;;;;;482313;246;28316;-77
2021/04/11 07:11:10;;;;;;;2.10;1.90;;;12.30;99.90;;;;;;482626;246;26759;-77
2021/04/11 07:13:12;;;;;;;9.57;2.70;;;;;;;;;;482153;246;28292;-77
2021/04/11 07:15:13;;;;;;;2.17;1.97;;;12.50;99.90;;;;;;482109;244;27522;-77
2021/04/11 07:17:16;;;;;;;3.30;2.03;;;12.50;99.90;;;;;;481752;246;29160;-76
2021/04/11 07:19:16;;;;;;;3.20;2.30;;;12.40;99.90;;;;;;481762;246;28255;-77
2021/04/11 07:21:18;;;;;;;6.70;2.47;;;;;;;;;;482407;246;28234;-78
2021/04/11 07:23:20;;;;;;;2.00;1.90;;;12.10;99.90;;;;;;482898;246;26790;-78
2021/04/11 07:25:21;;;;;;;6.37;2.50;;;12.10;99.90;;;;;;483020;246;28767;-77
2021/04/11 07:27:22;;;;;;;4.77;2.20;;;12.00;99.90;;;;;;482894;246;28822;-77
2021/04/11 07:29:23;;;;;;;3.27;2.40;;;12.10;99.90;;;;;;482832;246;30411;-78
2021/04/11 07:31:26;;;;;;;2.60;2.00;;;12.20;99.90;;;;;;482958;246;28637;-77
2021/04/11 07:33:26;;;;;;;4.60;2.40;;;12.20;99.90;;;;;;482642;246;28882;-77
2021/04/11 07:35:28;;;;;;;2.90;2.47;;;;;;;;;;482715;246;28265;-75
2021/04/11 07:37:29;;;;;;;2.83;1.83;;;12.40;99.90;;;;;;482804;246;27046;-75
2021/04/11 07:39:31;;;;;;;2.57;2.37;;;12.40;99.90;;;;;;482752;246;28387;-76
2021/04/11 07:41:32;;;;;;;3.67;2.67;;;12.50;99.90;;;;;;482757;246;28736;-76
2021/04/11 07:43:33;;;;;;;3.00;2.03;;;12.40;99.90;;;;;;484102;244;28891;-77
2021/04/11 07:45:34;;;;;;;5.03;2.33;;;12.40;99.90;;;;;;486653;244;28833;-77
2021/04/11 07:47:36;;;;;;;2.57;2.07;;;12.30;99.90;;;;;;486819;244;28709;-77
2021/04/11 07:49:37;;;;;;;5.60;2.40;;;12.10;99.90;;;;;;486953;244;28248;-77
2021/04/11 07:51:38;;;;;;;2.23;2.03;;;12.00;99.90;;;;;;486890;244;28707;-77
2021/04/11 07:53:39;;;;;;;6.53;2.10;;;12.00;99.90;;;;;;486892;244;28343;-76
2021/04/11 07:55:41;;;;;;;2.63;2.00;;;12.10;99.90;;;;;;486989;244;28114;-77
2021/04/11 07:57:42;;;;;;;2.50;2.17;;;12.20;99.90;;;;;;486933;244;28362;-77
2021/04/11 07:59:43;;;;;;;3.73;2.40;;;12.20;99.90;;;;;;486960;244;28235;-76
2021/04/11 08:01:46;;;;;;;4.30;2.17;;;;;;;;;;487035;244;29240;-77
2021/04/11 08:03:47;;;;;;;2.27;2.10;;;12.30;99.90;;;;;;486985;244;26997;-77
2021/04/11 08:05:48;;;;;;;3.10;2.50;;;12.30;99.90;;;;;;486929;244;28305;-76
2021/04/11 08:07:49;;;;;;;3.00;2.20;;;12.30;99.90;;;;;;486875;242;28984;-77
2021/04/11 08:09:51;;;;;;;4.30;2.50;;;12.50;99.90;;;;;;481943;244;28825;-77
2021/04/11 08:11:52;;;;;;;2.10;1.90;;;12.70;99.90;;;;;;481774;246;29578;-78
2021/04/11 08:13:53;;;;;;;3.40;1.80;;;12.90;99.90;;;;;;486777;244;28723;-78
2021/04/11 08:15:54;;;;;;;4.27;2.40;;;13.00;99.90;;;;;;486706;244;28250;-77
2021/04/11 08:17:56;;;;;;;4.87;2.83;;;13.10;99.90;;;;;;486979;244;28333;-78
2021/04/11 08:19:57;;;;;;;2.60;2.20;;;13.10;99.90;;;;;;486930;244;28295;-78
2021/04/11 08:21:58;;;;;;;2.47;2.00;;;13.10;99.90;;;;;;486932;241;28350;-78
2021/04/11 08:23:59;;;;;;;2.10;1.80;;;13.10;99.90;;;;;;486960;244;28477;-78
2021/04/11 08:26:01;;;;;;;3.80;2.10;;;13.10;99.90;;;;;;486997;244;28237;-78
2021/04/11 08:28:02;;;;;;;2.00;1.80;;;13.00;99.90;;;;;;487073;244;29301;-76
2021/04/11 08:30:03;;;;;;;5.77;2.27;;;13.10;99.90;;;;;;486983;244;28860;-77
2021/04/11 08:32:04;;;;;;;3.67;2.80;;;13.10;99.90;;;;;;487058;244;29026;-77
2021/04/11 08:34:06;;;;;;;4.10;2.47;;;12.90;99.90;;;;;;486959;244;29967;-77
2021/04/11 08:36:07;;;;;;;5.93;2.30;;;12.80;99.90;;;;;;487035;244;28494;-77
2021/04/11 08:38:08;;;;;;;3.37;2.30;;;12.70;99.90;;;;;;486899;244;28678;-77
2021/04/11 08:40:10;;;;;;;2.83;2.53;;;12.50;99.90;;;;;;486930;244;28862;-77
2021/04/11 08:42:11;;;;;;;3.90;2.20;;;12.60;99.90;;;;;;487015;244;28229;-77
2021/04/11 08:44:12;;;;;;;4.50;2.80;;;12.60;99.90;;;;;;486932;244;28317;-78
2021/04/11 08:46:13;;;;;;;3.37;2.23;;;12.40;99.90;;;;;;486832;244;28221;-77
2021/04/11 08:48:15;;;;;;;7.20;2.47;;;12.30;99.90;;;;;;486905;244;28245;-77
2021/04/11 08:50:16;;;;;;;2.30;2.10;;;12.20;99.90;;;;;;486969;244;28444;-77
2021/04/11 08:52:17;;;;;;;5.03;2.70;;;12.20;99.90;;;;;;486738;244;28375;-78
2021/04/11 08:54:18;;;;;;;3.77;2.70;;;12.20;99.90;;;;;;486907;244;28305;-78
2021/04/11 08:56:20;;;;;;;3.57;2.57;;;12.20;99.90;;;;;;486913;244;28372;-77
2021/04/11 08:58:21;;;;;;;2.20;2.00;;;12.20;99.90;;;;;;486903;244;28884;-77
2021/04/11 09:00:22;;;;;;;4.70;2.70;;;12.20;99.90;;;;;;485563;244;29358;-76
2021/04/11 09:02:23;;;;;;;2.43;2.10;;;12.20;99.90;;;;;;484387;245;28949;-77
2021/04/11 09:04:25;;;;;;;2.73;2.30;;;12.20;99.90;;;;;;484002;245;29389;-77
2021/04/11 09:06:26;;;;;;;4.37;2.20;;;12.20;99.90;;;;;;483127;246;28298;-76
2021/04/11 09:08:27;;;;;;;3.50;2.73;;;12.20;99.90;;;;;;478685;245;28370;-76
2021/04/11 09:10:28;;;;;;;4.20;2.90;;;12.30;99.90;;;;;;477401;249;28255;-78
2021/04/11 09:12:30;;;;;;;3.53;2.40;;;12.30;99.90;;;;;;477423;249;28163;-77
2021/04/11 09:14:31;;;;;;;6.70;2.70;;;12.40;99.90;;;;;;477443;249;28458;-76
2021/04/11 09:16:32;;;;;;;2.70;2.20;;;12.40;99.90;;;;;;477477;249;28252;-76
2021/04/11 09:18:34;;;;;;;4.93;2.57;;;12.40;99.90;;;;;;477493;249;28133;-76
2021/04/11 09:20:35;;;;;;;4.67;3.00;;;12.40;99.90;;;;;;477306;245;28771;-74
2021/04/11 09:22:36;;;;;;;3.33;2.60;;;12.40;99.90;;;;;;484760;245;28768;-76
2021/04/11 09:24:37;;;;;;;4.23;2.23;;;12.30;99.90;;;;;;484820;245;28323;-77
2021/04/11 09:26:38;;;;;;;4.60;2.50;;;12.10;99.90;;;;;;484438;245;28869;-77
2021/04/11 09:28:40;;;;;;;3.13;2.23;;;12.10;99.90;;;;;;484621;245;28533;-76
2021/04/11 09:30:42;;;;;;;2.93;2.30;;;12.00;99.90;;;;;;484635;245;28338;-76
2021/04/11 09:32:42;;;;;;;6.00;2.53;;;11.90;99.90;;;;;;484842;245;28331;-77
2021/04/11 09:34:43;;;;;;;3.87;2.10;;;11.80;99.90;;;;;;485338;242;28384;-76
2021/04/11 09:36:45;;;;;;;4.43;2.30;;;11.70;99.90;;;;;;485369;245;28528;-77
2021/04/11 09:38:46;;;;;;;5.43;2.47;;;11.70;99.90;;;;;;485358;245;28547;-76
2021/04/11 09:40:47;;;;;;;4.83;2.80;;;11.70;99.90;;;;;;485338;245;28587;-76
2021/04/11 09:42:48;;;;;;;2.53;2.13;;;11.70;99.90;;;;;;485277;245;28572;-76
2021/04/11 09:44:50;;;;;;;2.77;2.50;;;11.60;99.90;;;;;;485303;245;28464;-76
2021/04/11 09:46:51;;;;;;;2.57;2.20;;;11.60;99.90;;;;;;485224;245;28685;-77
2021/04/11 09:48:52;;;;;;;3.67;2.50;;;11.70;99.90;;;;;;485478;245;28793;-76
2021/04/11 09:50:53;;;;;;;2.83;2.50;;;11.60;99.90;;;;;;485545;245;28775;-77
2021/04/11 09:52:55;;;;;;;3.53;2.70;;;11.60;99.90;;;;;;485635;245;28481;-77
2021/04/11 09:54:56;;;;;;;6.30;2.53;;;11.60;99.90;;;;;;485481;245;28262;-76
2021/04/11 09:56:57;;;;;;;3.17;2.33;;;11.70;99.90;;;;;;484993;245;28586;-77
2021/04/11 09:58:58;;;;;;;4.23;2.60;;;11.70;99.90;;;;;;485269;245;28424;-75
2021/04/11 10:01:00;;;;;;;5.27;2.73;;;11.60;99.90;;;;;;485332;245;28509;-76
2021/04/11 10:03:01;;;;;;;2.80;2.03;;;11.40;99.90;;;;;;485317;245;28992;-78
2021/04/11 10:05:02;;;;;;;3.20;2.63;;;11.20;99.90;;;;;;485357;245;28246;-76
2021/04/11 10:07:03;;;;;;;7.87;2.90;;;11.10;99.90;;;;;;485403;245;28327;-76
2021/04/11 10:09:05;;;;;;;5.57;2.70;;;11.20;99.90;;;;;;485304;245;28688;-75
2021/04/11 10:11:06;;;;;;;3.60;2.80;;;11.10;99.90;;;;;;478687;245;28606;-77
2021/04/11 10:13:07;;;;;;;4.83;2.50;;;11.10;99.90;;;;;;477158;249;28164;-77
2021/04/11 10:15:09;;;;;;;5.60;3.10;;;11.10;99.90;;;;;;477209;249;28274;-77
2021/04/11 10:17:10;;;;;;;4.17;2.70;;;11.10;99.90;;;;;;477486;249;28761;-76
2021/04/11 10:19:11;;;;;;;4.47;2.53;;;11.10;99.90;;;;;;477462;249;28610;-77
2021/04/11 10:21:12;;;;;;;2.63;2.43;;;11.10;99.90;;;;;;477405;249;28608;-76
2021/04/11 10:23:14;;;;;;;5.40;2.80;;;11.00;99.90;;;;;;477426;249;28143;-76
2021/04/11 10:25:15;;;;;;;4.80;2.37;;;11.00;99.90;;;;;;477376;249;28141;-76
2021/04/11 10:27:16;;;;;;;5.30;2.50;;;11.00;99.90;;;;;;477399;249;28165;-78
2021/04/11 10:29:17;;;;;;;4.50;2.63;;;11.00;99.90;;;;;;477391;249;28051;-79
2021/04/11 10:31:19;;;;;;;2.93;2.73;;;11.00;99.90;;;;;;477384;249;28401;-76
2021/04/11 10:33:20;;;;;;;5.17;3.10;;;10.90;99.90;;;;;;477409;249;28057;-76